5°C
Gosport, Hampshire, United Kingdom
Language:  English
Updated23/01/2022 09:25:00 
 

Nearby METAR Reports

 

EGHI - Southampton Wx Centre, United Kingdom
Distance from station: NW 15mi, 24km
Updated: 23-Jan-2022 09:20:00
Overcast
Overcast
 Wind from varies
Wind: varies 1 mph , 2 km/h
Temperature: 5°C
Dew Point: 2°C
Humidity: 81%
Barometer: 1036 hPa
Clouds: Overcast
Visibility: 5 miles , 8 km
Cloud details: Overcast 457 m
2022/01/23 09:20 EGHI 230920Z VRB01KT 8000 OVC015 05/02 Q1036
EGHH - Bournemouth Airport, United Kingdom
Distance from station: W 30mi, 49km
Updated: 23-Jan-2022 09:20:00
Mostly cloudy
Mostly cloudy
 Wind from ESE
Wind: ESE 6 mph , 9 km/h
Temperature: 5°C
Wind Chill: 3°C
Dew Point: 2°C
Humidity: 81%
Barometer: 1036 hPa
Clouds: Mostly cloudy
Visibility: 6 miles , 10 km
Cloud details: Mostly cloudy 518 m
2022/01/23 09:20 EGHH 230920Z 11005KT 9999 BKN017 05/02 Q1036
EGVP - Middle Wallop Airfield, United Kingdom
Distance from station: NW 31mi, 49km
Updated: 23-Jan-2022 08:50:00
Overcast
Overcast
 Wind from ESE
Wind: ESE 5 mph , 7 km/h
Temperature: 4°C
Wind Chill: 2°C
Dew Point: 1°C
Humidity: 81%
Barometer: 1035 hPa
Clouds: Overcast
Visibility: 6 miles , 10 km
Cloud details: Overcast 366 m
2022/01/23 08:50 EGVP 230850Z AUTO 11004KT 9999 OVC012/// 04/01 Q1035
 
EGVO - RAF Odiham, United Kingdom
Distance from station: NNE 32mi, 52km
Updated: 23-Jan-2022 08:50:00
Overcast
Overcast
 Wind from ESE
Wind: ESE 2 mph , 4 km/h
Temperature: 4°C
Dew Point: 2°C
Humidity: 87%
Barometer: 1035 hPa
Clouds: Overcast
Visibility: 6 miles , 10 km
Cloud details: Overcast 396 m
2022/01/23 08:50 EGVO 230850Z AUTO 11002KT 9999 OVC013/// 04/02 Q1035
EGKA - Shoreham Airport, United Kingdom
Distance from station: E 37mi, 59km
Updated: 23-Jan-2022 09:20:00
Mostly cloudy
Mostly cloudy
 Wind from E
Wind: E 5 mph , 7 km/h
Temperature: 5°C
Wind Chill: 3°C
Dew Point: 2°C
Humidity: 81%
Barometer: 1036 hPa
Clouds: Mostly cloudy
Visibility: 4 miles , 6 km
Cloud details: Few Clouds 427 m
Mostly cloudy 579 m
2022/01/23 09:20 EGKA 230920Z 09004KT 6000 FEW014 BKN019 05/02 Q1036
EGDM - Boscombe Down, United Kingdom
Distance from station: NW 38mi, 61km
Updated: 23-Jan-2022 08:50:00
Overcast
Overcast
 Wind from SE
Wind: SE 5 mph , 7 km/h
Temperature: 3°C
Wind Chill: 1°C
Dew Point: 1°C
Humidity: 87%
Barometer: 1035 hPa
Clouds: Overcast
Visibility: 6 miles , 10 km
Cloud details: Overcast 396 m
2022/01/23 08:50 EGDM 230850Z 13004KT 9999 OVC013 03/01 Q1035 RMK GRN
 
EGLF - Farnborough, United Kingdom
Distance from station: NNE 38mi, 61km
Updated: 23-Jan-2022 09:20:00
Overcast
Overcast
 Wind from SE
Wind: SE 3 mph , 6 km/h
Temperature: 5°C
Dew Point: 2°C
Humidity: 81%
Barometer: 1036 hPa
Clouds: Overcast
Visibility: 6 miles , 10 km
Cloud details: Overcast 457 m
2022/01/23 09:20 EGLF 230920Z AUTO 13003KT 9999 OVC015/// 05/02 Q1036
EGKK - Gatwick Airport, United Kingdom
Distance from station: ENE 49mi, 78km
Updated: 23-Jan-2022 09:20:00
Mostly cloudy
Mostly cloudy
 Wind from SSE
Wind: SSE 2 mph , 4 km/h
Temperature: 5°C
Dew Point: 2°C
Humidity: 81%
Barometer: 1036 hPa
Clouds: Mostly cloudy
Visibility: 6 miles , 10 km
Cloud details: Mostly cloudy 518 m
2022/01/23 09:20 EGKK 230920Z 16002KT 9999 BKN017 05/02 Q1036
EGLL - Heathrow Airport, United Kingdom
Distance from station: NNE 57mi, 91km
Updated: 23-Jan-2022 09:20:00
Overcast
Overcast
 Wind from varies
Wind: varies 2 mph , 4 km/h
Temperature: 6°C
Dew Point: 3°C
Humidity: 81%
Barometer: 1036 hPa
Clouds: Overcast
Visibility: 6 miles , 10 km
Cloud details: Overcast 518 m
2022/01/23 09:20 EGLL 230920Z AUTO VRB02KT 9999 OVC017 06/03 Q1036 NOSIG
 
EGUB - RAF Benson, United Kingdom
Distance from station: N 58mi, 93km
Updated: 23-Jan-2022 08:50:00
Overcast
Overcast
 Wind from SSW
Wind: SSW 2 mph , 4 km/h
Temperature: 4°C
Dew Point: 2°C
Humidity: 87%
Barometer: 1036 hPa
Clouds: Overcast
Visibility: 6 miles , 10 km
Cloud details: Overcast 457 m
2022/01/23 08:50 EGUB 230850Z AUTO 20002KT 9999 // OVC015/// 04/02 Q1036
EGWU - RAF Northolt, United Kingdom
Distance from station: NNE 62mi, 99km
Updated: 23-Jan-2022 09:20:00
Overcast
Overcast
 Wind from ESE
Wind: ESE 1 mph , 2 km/h
Temperature: 6°C
Dew Point: 3°C
Humidity: 81%
Barometer: 1036 hPa
Clouds: Overcast
Visibility: 6 miles , 10 km
Cloud details: Overcast 549 m
2022/01/23 09:20 EGWU 230920Z 12001KT 9999 OVC018 06/03 Q1036 NOSIG RMK WHT WHT
EGKB - Biggin Hill Airport, United Kingdom
Distance from station: NE 62mi, 100km
Updated: 23-Jan-2022 09:20:00
Overcast
Overcast
 Wind from S
Wind: S 3 mph , 6 km/h
Temperature: 4°C
Dew Point: 2°C
Humidity: 87%
Barometer: 1036 hPa
Clouds: Overcast
Visibility: 6 miles , 10 km
Cloud details: Overcast 488 m
2022/01/23 09:20 EGKB 230920Z 18003KT 9999 OVC016 04/02 Q1036
 
EGDY - RNAS Yeovilton, United Kingdom
Distance from station: WNW 66mi, 107km
Updated: 23-Jan-2022 08:50:00
Overcast
Overcast
 Wind from SE
Wind: SE 2 mph , 4 km/h
Temperature: 3°C
Dew Point: 1°C
Humidity: 87%
Barometer: 1036 hPa
Clouds: Overcast
Visibility: 6 miles , 10 km
Cloud details: Overcast 488 m
2022/01/23 08:50 EGDY 230850Z AUTO 14002KT 9999 OVC016/// 03/01 Q1036
EGUO - Colerne Airfield, United Kingdom
Distance from station: NW 67mi, 108km
Updated: 14-Feb-2019 22:50:00
NOT Current
Clear
Clear
 Wind from ENE
Wind: ENE 1 mph , 2 km/h
Temperature: 1°C
Dew Point: 0°C
Humidity: 93%
Barometer: 1029 hPa
Summary: Clear
Visibility: greater than 7 miles , 10 km
2019/02/14 22:50 EGUO 142250Z 06001KT CAVOK 01/00 Q1029 BLU NOSIG
EGVA - RAF Fairford, United Kingdom
Distance from station: NNW 67mi, 108km
Updated: 23-Jan-2022 08:56:00
Overcast
Overcast
 Wind from SSW
Wind: SSW 6 mph , 9 km/h
Temperature: 4°C
Wind Chill: 2°C
Dew Point: 3°C
Humidity: 93%
Barometer: 1034.9 hPa
Clouds: Overcast
Visibility: 6 miles , 10 km
Cloud details: Overcast 427 m
2022/01/23 08:56 EGVA 230856Z AUTO 21005KT 9999 OVC014 04/03 A3056 RMK AO2 SLPNO T00360029 51004 FZRANO $
 
EGVN - RAF Brize Norton, United Kingdom
Distance from station: NNW 71mi, 114km
Updated: 23-Jan-2022 09:20:00
Overcast
Overcast
 Wind from S
Wind: S 3 mph , 6 km/h
Temperature: 4°C
Dew Point: 1°C
Humidity: 81%
Barometer: 1036 hPa
Clouds: Overcast
Visibility: 6 miles , 10 km
Cloud details: Overcast 396 m
2022/01/23 09:20 EGVN 230920Z 18003KT 9999 OVC013 04/01 Q1036 TEMPO OVC015 RMK GRN TEMPO WHT
EGLC - London City Airport, United Kingdom
Distance from station: NE 71mi, 115km
Updated: 23-Jan-2022 09:20:00
Overcast
Overcast
 Wind from ESE
Wind: ESE 2 mph , 4 km/h
Temperature: 6°C
Dew Point: 2°C
Humidity: 76%
Barometer: 1036 hPa
Clouds: Overcast
Visibility: 6 miles , 10 km
Cloud details: Overcast 671 m
2022/01/23 09:20 EGLC 230920Z AUTO 11002KT 9999 OVC022 06/02 Q1036
EGGD - Bristol Airport, United Kingdom
Distance from station: WNW 80mi, 128km
Updated: 23-Jan-2022 09:20:00
Overcast
Overcast
 Wind from SE
Wind: SE 5 mph , 7 km/h
Temperature: 2°C
Wind Chill: 0°C
Dew Point: 0°C
Humidity: 87%
Barometer: 1035 hPa
Clouds: Overcast
Visibility: 6 miles , 10 km
Cloud details: Overcast 335 m
2022/01/23 09:20 EGGD 230920Z AUTO 13004KT 090V180 9999 OVC011 02/M00 Q1035
 
LFRC - Cherbourg-Maupertus Airport, France
Distance from station: S 81mi, 130km
Updated: 23-Jan-2022 09:00:00
Overcast
Overcast
 Wind from E
Wind: E 5 mph , 7 km/h
Temperature: 5°C
Wind Chill: 3°C
Dew Point: 3°C
Humidity: 87%
Barometer: 1035 hPa
Clouds: Overcast
Visibility: 6 miles , 10 km
Cloud details: Overcast 427 m
2022/01/23 09:00 LFRC 230900Z AUTO 10004KT 9999 OVC014 05/03 Q1035 NOSIG
EGGW - Luton Airport, United Kingdom
Distance from station: NNE 82mi, 132km
Updated: 23-Jan-2022 09:20:00
Overcast
Overcast
 Wind from varies
Wind: varies 1 mph , 2 km/h
Temperature: 5°C
Dew Point: 2°C
Humidity: 81%
Barometer: 1035 hPa
Clouds: Overcast
Visibility: 6 miles , 10 km
Cloud details: Overcast 427 m
2022/01/23 09:20 EGGW 230920Z AUTO VRB01KT 9999 OVC014 05/02 Q1035